ROMMA est une association bénévole à but non lucratif. Votre soutien est indispensable : ADHERER à ROMMA ou FAIRE un DON

Grimentz - (CH, Suisse)

Alpes Valaisannes (1710 m)   Longitude: 07° 34' E   Latitude: 46° 11' N Station partenaire n°125
 

Détail journalier du     <<     >>

Température Precipitation Humidité Vent Dir Rafale Dir. rafale Ensol.
Heure (°C) (mm) (%) (km/h) (km/h) (min)
01:00 12.60525ONO13NNO0
02:00 11.80564ONO15NO0
03:00 12.90515ONO15NNO0
04:00 12.50525ONO11NO0
05:00 13.20503ONO13ONO0
06:00 11.305600---0
07:00 11.00592---6NO0
08:00 11.40554ONO10O0
09:00 11.70571---6ONO0
10:00 13.305805NO0
11:00 15.70471S8ENE50
12:00 18.20392SE10E60
13:00 18.50412SE6E55
14:00 18.50413E10NE50
15:00 18.204005S20
16:00 18.60402SSE8SSO40
17:00 17.40471SSO6SSO5
18:00 15.40483O10O0
19:00 14.90485NO13NNO0
20:00 14.20514ONO10ONO0
21:00 13.80523NO6ONO0
22:00 12.50573ONO6NO0
23:00 12.50573NO6NO0
minuit 12.50544NO10ONO0

Graphique du 13-10-2019

 

Serveur OMMA